sensor_id;sensor_type;location;lat;lon;timestamp;P1;P2;P0
73973;PMS5003;62336;-26.094;27.994;2023-06-26T00:01:41;75;69;
73973;PMS5003;62336;-26.094;27.994;2023-06-26T00:04:07;72;68;
73973;PMS5003;62336;-26.094;27.994;2023-06-26T00:06:32;75;73;
73973;PMS5003;62336;-26.094;27.994;2023-06-26T00:08:57;77;76;
73973;PMS5003;62336;-26.094;27.994;2023-06-26T00:11:22;72;67;
73973;PMS5003;62336;-26.094;27.994;2023-06-26T00:13:48;74;67;
73973;PMS5003;62336;-26.094;27.994;2023-06-26T00:16:13;75;71;
73973;PMS5003;62336;-26.094;27.994;2023-06-26T00:18:38;80;74;
73973;PMS5003;62336;-26.094;27.994;2023-06-26T00:21:04;71;68;
73973;PMS5003;62336;-26.094;27.994;2023-06-26T00:23:29;75;68;
73973;PMS5003;62336;-26.094;27.994;2023-06-26T00:25:55;72;68;
73973;PMS5003;62336;-26.094;27.994;2023-06-26T00:28:20;79;77;
73973;PMS5003;62336;-26.094;27.994;2023-06-26T00:30:45;73;70;
73973;PMS5003;62336;-26.094;27.994;2023-06-26T00:33:12;75;73;
73973;PMS5003;62336;-26.094;27.994;2023-06-26T00:35:37;90;75;
73973;PMS5003;62336;-26.094;27.994;2023-06-26T00:38:02;79;74;
73973;PMS5003;62336;-26.094;27.994;2023-06-26T00:40:28;83;76;
73973;PMS5003;62336;-26.094;27.994;2023-06-26T00:42:54;79;73;
73973;PMS5003;62336;-26.094;27.994;2023-06-26T00:45:20;72;68;
73973;PMS5003;62336;-26.094;27.994;2023-06-26T00:47:44;78;74;
73973;PMS5003;62336;-26.094;27.994;2023-06-26T00:50:10;84;76;
73973;PMS5003;62336;-26.094;27.994;2023-06-26T00:52:35;78;76;
73973;PMS5003;62336;-26.094;27.994;2023-06-26T00:55:01;90;83;
73973;PMS5003;62336;-26.094;27.994;2023-06-26T00:57:27;77;72;
73973;PMS5003;62336;-26.094;27.994;2023-06-26T00:59:52;80;75;
73973;PMS5003;62336;-26.094;27.994;2023-06-26T01:02:17;79;74;
73973;PMS5003;62336;-26.094;27.994;2023-06-26T01:04:43;79;76;
73973;PMS5003;62336;-26.094;27.994;2023-06-26T01:07:08;82;81;
73973;PMS5003;62336;-26.094;27.994;2023-06-26T01:09:34;87;78;
73973;PMS5003;62336;-26.094;27.994;2023-06-26T01:11:59;89;81;
73973;PMS5003;62336;-26.094;27.994;2023-06-26T01:14:25;85;77;
73973;PMS5003;62336;-26.094;27.994;2023-06-26T01:16:51;81;77;
73973;PMS5003;62336;-26.094;27.994;2023-06-26T01:19:18;84;76;
73973;PMS5003;62336;-26.094;27.994;2023-06-26T01:21:43;87;83;
73973;PMS5003;62336;-26.094;27.994;2023-06-26T01:24:09;83;77;
73973;PMS5003;62336;-26.094;27.994;2023-06-26T01:26:33;89;81;
73973;PMS5003;62336;-26.094;27.994;2023-06-26T01:28:58;85;76;
73973;PMS5003;62336;-26.094;27.994;2023-06-26T01:31:23;85;80;
73973;PMS5003;62336;-26.094;27.994;2023-06-26T01:33:49;85;80;
73973;PMS5003;62336;-26.094;27.994;2023-06-26T01:36:14;84;75;
73973;PMS5003;62336;-26.094;27.994;2023-06-26T01:38:39;80;75;
73973;PMS5003;62336;-26.094;27.994;2023-06-26T01:41:05;77;77;
73973;PMS5003;62336;-26.094;27.994;2023-06-26T01:43:36;83;80;
73973;PMS5003;62336;-26.094;27.994;2023-06-26T01:45:58;75;68;
73973;PMS5003;62336;-26.094;27.994;2023-06-26T01:48:22;76;74;
73973;PMS5003;62336;-26.094;27.994;2023-06-26T01:50:47;78;73;
73973;PMS5003;62336;-26.094;27.994;2023-06-26T01:53:13;76;72;
73973;PMS5003;62336;-26.094;27.994;2023-06-26T01:55:39;81;75;
73973;PMS5003;62336;-26.094;27.994;2023-06-26T01:58:03;83;78;
73973;PMS5003;62336;-26.094;27.994;2023-06-26T02:00:29;81;74;
73973;PMS5003;62336;-26.094;27.994;2023-06-26T02:02:54;82;79;
73973;PMS5003;62336;-26.094;27.994;2023-06-26T02:05:19;73;70;
73973;PMS5003;62336;-26.094;27.994;2023-06-26T02:07:45;78;75;
73973;PMS5003;62336;-26.094;27.994;2023-06-26T02:10:11;79;77;
73973;PMS5003;62336;-26.094;27.994;2023-06-26T02:12:37;74;71;
73973;PMS5003;62336;-26.094;27.994;2023-06-26T02:15:01;75;68;
73973;PMS5003;62336;-26.094;27.994;2023-06-26T02:17:27;88;79;
73973;PMS5003;62336;-26.094;27.994;2023-06-26T02:19:52;83;74;
73973;PMS5003;62336;-26.094;27.994;2023-06-26T02:22:18;77;71;
73973;PMS5003;62336;-26.094;27.994;2023-06-26T02:24:43;79;72;
73973;PMS5003;62336;-26.094;27.994;2023-06-26T02:27:08;76;71;
73973;PMS5003;62336;-26.094;27.994;2023-06-26T02:29:34;82;73;
73973;PMS5003;62336;-26.094;27.994;2023-06-26T02:31:59;77;73;
73973;PMS5003;62336;-26.094;27.994;2023-06-26T02:34:26;80;74;
73973;PMS5003;62336;-26.094;27.994;2023-06-26T02:36:51;75;71;
73973;PMS5003;62336;-26.094;27.994;2023-06-26T02:39:16;75;73;
73973;PMS5003;62336;-26.094;27.994;2023-06-26T02:41:41;72;69;
73973;PMS5003;62336;-26.094;27.994;2023-06-26T02:44:07;71;64;
73973;PMS5003;62336;-26.094;27.994;2023-06-26T02:46:33;71;67;
73973;PMS5003;62336;-26.094;27.994;2023-06-26T02:48:59;69;68;
73973;PMS5003;62336;-26.094;27.994;2023-06-26T02:51:24;68;66;
73973;PMS5003;62336;-26.094;27.994;2023-06-26T02:53:50;78;68;
73973;PMS5003;62336;-26.094;27.994;2023-06-26T02:56:15;66;66;
73973;PMS5003;62336;-26.094;27.994;2023-06-26T02:58:41;72;70;
73973;PMS5003;62336;-26.094;27.994;2023-06-26T03:01:06;72;65;
73973;PMS5003;62336;-26.094;27.994;2023-06-26T03:03:31;79;75;
73973;PMS5003;62336;-26.094;27.994;2023-06-26T03:05:57;75;69;
73973;PMS5003;62336;-26.094;27.994;2023-06-26T03:08:22;77;71;
73973;PMS5003;62336;-26.094;27.994;2023-06-26T03:10:47;72;69;
73973;PMS5003;62336;-26.094;27.994;2023-06-26T03:13:12;78;68;
73973;PMS5003;62336;-26.094;27.994;2023-06-26T03:15:37;68;65;
73973;PMS5003;62336;-26.094;27.994;2023-06-26T03:18:03;71;60;
73973;PMS5003;62336;-26.094;27.994;2023-06-26T03:20:28;72;68;
73973;PMS5003;62336;-26.094;27.994;2023-06-26T03:22:54;68;65;
73973;PMS5003;62336;-26.094;27.994;2023-06-26T03:25:19;63;56;
73973;PMS5003;62336;-26.094;27.994;2023-06-26T03:27:44;69;67;
73973;PMS5003;62336;-26.094;27.994;2023-06-26T03:30:10;66;63;
73973;PMS5003;62336;-26.094;27.994;2023-06-26T03:32:35;66;65;
73973;PMS5003;62336;-26.094;27.994;2023-06-26T03:35:01;68;62;
73973;PMS5003;62336;-26.094;27.994;2023-06-26T03:37:26;62;60;
73973;PMS5003;62336;-26.094;27.994;2023-06-26T03:39:51;61;56;
73973;PMS5003;62336;-26.094;27.994;2023-06-26T03:42:17;64;60;
73973;PMS5003;62336;-26.094;27.994;2023-06-26T03:44:42;66;62;
73973;PMS5003;62336;-26.094;27.994;2023-06-26T03:47:07;70;64;
73973;PMS5003;62336;-26.094;27.994;2023-06-26T03:49:33;62;59;
73973;PMS5003;62336;-26.094;27.994;2023-06-26T03:51:58;63;61;
73973;PMS5003;62336;-26.094;27.994;2023-06-26T03:54:23;59;53;
73973;PMS5003;62336;-26.094;27.994;2023-06-26T03:56:49;60;57;
73973;PMS5003;62336;-26.094;27.994;2023-06-26T03:59:15;59;57;
73973;PMS5003;62336;-26.094;27.994;2023-06-26T04:01:40;66;62;
73973;PMS5003;62336;-26.094;27.994;2023-06-26T04:04:05;68;63;
73973;PMS5003;62336;-26.094;27.994;2023-06-26T04:06:31;59;58;
73973;PMS5003;62336;-26.094;27.994;2023-06-26T04:08:56;58;51;
73973;PMS5003;62336;-26.094;27.994;2023-06-26T04:11:23;57;55;
73973;PMS5003;62336;-26.094;27.994;2023-06-26T04:13:48;64;61;
73973;PMS5003;62336;-26.094;27.994;2023-06-26T04:16:13;61;57;
73973;PMS5003;62336;-26.094;27.994;2023-06-26T04:18:38;60;58;
73973;PMS5003;62336;-26.094;27.994;2023-06-26T04:21:06;59;57;
73973;PMS5003;62336;-26.094;27.994;2023-06-26T04:23:28;62;58;
73973;PMS5003;62336;-26.094;27.994;2023-06-26T04:25:54;64;60;
73973;PMS5003;62336;-26.094;27.994;2023-06-26T04:28:19;57;56;
73973;PMS5003;62336;-26.094;27.994;2023-06-26T04:30:45;55;53;
73973;PMS5003;62336;-26.094;27.994;2023-06-26T04:33:11;57;56;
73973;PMS5003;62336;-26.094;27.994;2023-06-26T04:35:37;57;53;
73973;PMS5003;62336;-26.094;27.994;2023-06-26T04:38:02;61;57;
73973;PMS5003;62336;-26.094;27.994;2023-06-26T04:40:27;60;57;
73973;PMS5003;62336;-26.094;27.994;2023-06-26T04:42:52;56;55;
73973;PMS5003;62336;-26.094;27.994;2023-06-26T04:45:17;68;62;
73973;PMS5003;62336;-26.094;27.994;2023-06-26T04:47:44;58;57;
73973;PMS5003;62336;-26.094;27.994;2023-06-26T04:50:09;57;55;
73973;PMS5003;62336;-26.094;27.994;2023-06-26T04:52:34;63;58;
73973;PMS5003;62336;-26.094;27.994;2023-06-26T04:54:59;57;52;
73973;PMS5003;62336;-26.094;27.994;2023-06-26T04:57:25;57;54;
73973;PMS5003;62336;-26.094;27.994;2023-06-26T04:59:51;59;56;
73973;PMS5003;62336;-26.094;27.994;2023-06-26T05:02:15;64;62;
73973;PMS5003;62336;-26.094;27.994;2023-06-26T05:04:41;59;54;
73973;PMS5003;62336;-26.094;27.994;2023-06-26T05:07:06;56;52;
73973;PMS5003;62336;-26.094;27.994;2023-06-26T05:09:32;65;60;
73973;PMS5003;62336;-26.094;27.994;2023-06-26T05:11:57;60;57;
73973;PMS5003;62336;-26.094;27.994;2023-06-26T05:14:22;60;56;
73973;PMS5003;62336;-26.094;27.994;2023-06-26T05:16:48;64;61;
73973;PMS5003;62336;-26.094;27.994;2023-06-26T05:19:13;58;53;
73973;PMS5003;62336;-26.094;27.994;2023-06-26T05:21:38;57;56;
73973;PMS5003;62336;-26.094;27.994;2023-06-26T05:24:04;59;56;
73973;PMS5003;62336;-26.094;27.994;2023-06-26T05:26:29;60;56;
73973;PMS5003;62336;-26.094;27.994;2023-06-26T05:28:54;57;55;
73973;PMS5003;62336;-26.094;27.994;2023-06-26T05:31:20;61;54;
73973;PMS5003;62336;-26.094;27.994;2023-06-26T05:33:45;62;56;
73973;PMS5003;62336;-26.094;27.994;2023-06-26T05:36:11;60;56;
73973;PMS5003;62336;-26.094;27.994;2023-06-26T05:38:36;76;68;
73973;PMS5003;62336;-26.094;27.994;2023-06-26T05:41:01;62;59;
73973;PMS5003;62336;-26.094;27.994;2023-06-26T05:43:27;69;63;
73973;PMS5003;62336;-26.094;27.994;2023-06-26T05:45:52;63;59;
73973;PMS5003;62336;-26.094;27.994;2023-06-26T05:48:17;59;57;
73973;PMS5003;62336;-26.094;27.994;2023-06-26T05:50:43;63;61;
73973;PMS5003;62336;-26.094;27.994;2023-06-26T05:53:09;64;59;
73973;PMS5003;62336;-26.094;27.994;2023-06-26T05:55:34;65;65;
73973;PMS5003;62336;-26.094;27.994;2023-06-26T05:57:59;68;64;
73973;PMS5003;62336;-26.094;27.994;2023-06-26T06:00:25;62;60;
73973;PMS5003;62336;-26.094;27.994;2023-06-26T06:02:50;67;65;
73973;PMS5003;62336;-26.094;27.994;2023-06-26T06:05:15;71;64;
73973;PMS5003;62336;-26.094;27.994;2023-06-26T06:07:40;60;58;
73973;PMS5003;62336;-26.094;27.994;2023-06-26T06:10:05;73;70;
73973;PMS5003;62336;-26.094;27.994;2023-06-26T06:12:31;79;75;
73973;PMS5003;62336;-26.094;27.994;2023-06-26T06:14:57;71;69;
73973;PMS5003;62336;-26.094;27.994;2023-06-26T06:17:23;69;68;
73973;PMS5003;62336;-26.094;27.994;2023-06-26T06:19:48;71;69;
73973;PMS5003;62336;-26.094;27.994;2023-06-26T06:22:13;72;66;
73973;PMS5003;62336;-26.094;27.994;2023-06-26T06:24:39;69;64;
73973;PMS5003;62336;-26.094;27.994;2023-06-26T06:27:04;69;68;
73973;PMS5003;62336;-26.094;27.994;2023-06-26T06:29:29;71;66;
73973;PMS5003;62336;-26.094;27.994;2023-06-26T06:31:56;66;64;
73973;PMS5003;62336;-26.094;27.994;2023-06-26T06:34:20;76;66;
73973;PMS5003;62336;-26.094;27.994;2023-06-26T06:36:47;67;64;
73973;PMS5003;62336;-26.094;27.994;2023-06-26T06:39:11;66;61;
73973;PMS5003;62336;-26.094;27.994;2023-06-26T06:41:38;64;56;
73973;PMS5003;62336;-26.094;27.994;2023-06-26T06:44:03;56;49;
73973;PMS5003;62336;-26.094;27.994;2023-06-26T06:46:29;50;46;
73973;PMS5003;62336;-26.094;27.994;2023-06-26T06:48:54;53;50;
73973;PMS5003;62336;-26.094;27.994;2023-06-26T06:51:19;50;50;
73973;PMS5003;62336;-26.094;27.994;2023-06-26T06:53:44;48;46;
73973;PMS5003;62336;-26.094;27.994;2023-06-26T06:56:10;46;45;
73973;PMS5003;62336;-26.094;27.994;2023-06-26T06:58:35;53;48;
73973;PMS5003;62336;-26.094;27.994;2023-06-26T07:01:02;61;59;
73973;PMS5003;62336;-26.094;27.994;2023-06-26T07:03:26;66;60;
73973;PMS5003;62336;-26.094;27.994;2023-06-26T07:05:51;52;46;
73973;PMS5003;62336;-26.094;27.994;2023-06-26T07:08:18;55;52;
73973;PMS5003;62336;-26.094;27.994;2023-06-26T07:10:42;57;56;
73973;PMS5003;62336;-26.094;27.994;2023-06-26T07:13:08;64;58;
73973;PMS5003;62336;-26.094;27.994;2023-06-26T07:15:33;51;47;
73973;PMS5003;62336;-26.094;27.994;2023-06-26T07:17:59;57;51;
73973;PMS5003;62336;-26.094;27.994;2023-06-26T07:20:24;55;48;
73973;PMS5003;62336;-26.094;27.994;2023-06-26T07:22:50;46;44;
73973;PMS5003;62336;-26.094;27.994;2023-06-26T07:25:15;70;65;
73973;PMS5003;62336;-26.094;27.994;2023-06-26T07:27:40;125;114;
73973;PMS5003;62336;-26.094;27.994;2023-06-26T07:30:05;52;51;
73973;PMS5003;62336;-26.094;27.994;2023-06-26T07:32:30;62;58;
73973;PMS5003;62336;-26.094;27.994;2023-06-26T07:34:56;49;48;
73973;PMS5003;62336;-26.094;27.994;2023-06-26T07:37:22;50;46;
73973;PMS5003;62336;-26.094;27.994;2023-06-26T07:39:47;44;42;
73973;PMS5003;62336;-26.094;27.994;2023-06-26T07:42:12;38;38;
73973;PMS5003;62336;-26.094;27.994;2023-06-26T07:44:37;37;33;
73973;PMS5003;62336;-26.094;27.994;2023-06-26T07:47:03;41;38;
73973;PMS5003;62336;-26.094;27.994;2023-06-26T07:49:30;43;41;
73973;PMS5003;62336;-26.094;27.994;2023-06-26T07:51:54;40;40;
73973;PMS5003;62336;-26.094;27.994;2023-06-26T07:54:20;37;36;
73973;PMS5003;62336;-26.094;27.994;2023-06-26T07:56:54;52;46;
73973;PMS5003;62336;-26.094;27.994;2023-06-26T07:59:10;47;45;
73973;PMS5003;62336;-26.094;27.994;2023-06-26T08:01:37;56;51;
73973;PMS5003;62336;-26.094;27.994;2023-06-26T08:04:01;46;45;
73973;PMS5003;62336;-26.094;27.994;2023-06-26T08:06:26;42;41;
73973;PMS5003;62336;-26.094;27.994;2023-06-26T08:08:51;48;46;
73973;PMS5003;62336;-26.094;27.994;2023-06-26T08:11:16;47;44;
73973;PMS5003;62336;-26.094;27.994;2023-06-26T08:13:43;49;44;
73973;PMS5003;62336;-26.094;27.994;2023-06-26T08:16:08;45;44;
73973;PMS5003;62336;-26.094;27.994;2023-06-26T08:18:34;43;39;
73973;PMS5003;62336;-26.094;27.994;2023-06-26T08:20:59;45;42;
73973;PMS5003;62336;-26.094;27.994;2023-06-26T08:23:25;46;44;
73973;PMS5003;62336;-26.094;27.994;2023-06-26T08:25:51;45;41;
73973;PMS5003;62336;-26.094;27.994;2023-06-26T08:28:14;45;43;
73973;PMS5003;62336;-26.094;27.994;2023-06-26T08:30:40;50;45;
73973;PMS5003;62336;-26.094;27.994;2023-06-26T08:33:05;46;44;
73973;PMS5003;62336;-26.094;27.994;2023-06-26T08:35:30;51;46;
73973;PMS5003;62336;-26.094;27.994;2023-06-26T08:37:56;39;38;
73973;PMS5003;62336;-26.094;27.994;2023-06-26T08:40:21;46;44;
73973;PMS5003;62336;-26.094;27.994;2023-06-26T08:42:46;44;41;
73973;PMS5003;62336;-26.094;27.994;2023-06-26T08:45:12;52;50;
73973;PMS5003;62336;-26.094;27.994;2023-06-26T08:47:39;48;46;
73973;PMS5003;62336;-26.094;27.994;2023-06-26T08:50:07;50;47;
73973;PMS5003;62336;-26.094;27.994;2023-06-26T08:52:30;45;43;
73973;PMS5003;62336;-26.094;27.994;2023-06-26T08:54:58;48;45;
73973;PMS5003;62336;-26.094;27.994;2023-06-26T08:57:19;47;42;
73973;PMS5003;62336;-26.094;27.994;2023-06-26T08:59:44;45;41;
73973;PMS5003;62336;-26.094;27.994;2023-06-26T09:02:10;46;46;
73973;PMS5003;62336;-26.094;27.994;2023-06-26T09:04:36;46;44;
73973;PMS5003;62336;-26.094;27.994;2023-06-26T09:07:01;45;43;
73973;PMS5003;62336;-26.094;27.994;2023-06-26T09:09:27;53;50;
73973;PMS5003;62336;-26.094;27.994;2023-06-26T09:11:53;38;36;
73973;PMS5003;62336;-26.094;27.994;2023-06-26T09:14:17;51;47;
73973;PMS5003;62336;-26.094;27.994;2023-06-26T09:16:45;46;45;
73973;PMS5003;62336;-26.094;27.994;2023-06-26T09:19:09;51;45;
73973;PMS5003;62336;-26.094;27.994;2023-06-26T09:21:34;56;51;
73973;PMS5003;62336;-26.094;27.994;2023-06-26T09:24:01;47;46;
73973;PMS5003;62336;-26.094;27.994;2023-06-26T09:26:26;43;42;
73973;PMS5003;62336;-26.094;27.994;2023-06-26T09:28:51;51;49;
73973;PMS5003;62336;-26.094;27.994;2023-06-26T09:31:16;50;47;
73973;PMS5003;62336;-26.094;27.994;2023-06-26T09:33:42;55;50;
73973;PMS5003;62336;-26.094;27.994;2023-06-26T09:36:07;48;45;
73973;PMS5003;62336;-26.094;27.994;2023-06-26T09:38:34;52;48;
73973;PMS5003;62336;-26.094;27.994;2023-06-26T09:40:59;50;48;
73973;PMS5003;62336;-26.094;27.994;2023-06-26T09:43:25;60;59;
73973;PMS5003;62336;-26.094;27.994;2023-06-26T09:45:49;54;51;
73973;PMS5003;62336;-26.094;27.994;2023-06-26T09:48:15;44;44;
73973;PMS5003;62336;-26.094;27.994;2023-06-26T09:50:41;47;44;
73973;PMS5003;62336;-26.094;27.994;2023-06-26T09:53:07;44;42;
73973;PMS5003;62336;-26.094;27.994;2023-06-26T09:55:33;47;45;
73973;PMS5003;62336;-26.094;27.994;2023-06-26T09:57:57;48;47;
73973;PMS5003;62336;-26.094;27.994;2023-06-26T10:00:22;52;50;
73973;PMS5003;62336;-26.094;27.994;2023-06-26T10:02:48;48;47;
73973;PMS5003;62336;-26.094;27.994;2023-06-26T10:05:14;47;47;
73973;PMS5003;62336;-26.094;27.994;2023-06-26T10:07:39;52;50;
73973;PMS5003;62336;-26.094;27.994;2023-06-26T10:10:05;48;47;
73973;PMS5003;62336;-26.094;27.994;2023-06-26T10:12:31;46;44;
73973;PMS5003;62336;-26.094;27.994;2023-06-26T10:14:57;45;43;
73973;PMS5003;62336;-26.094;27.994;2023-06-26T10:17:21;40;39;
73973;PMS5003;62336;-26.094;27.994;2023-06-26T10:19:47;42;37;
73973;PMS5003;62336;-26.094;27.994;2023-06-26T10:22:14;42;40;
73973;PMS5003;62336;-26.094;27.994;2023-06-26T10:24:37;44;41;
73973;PMS5003;62336;-26.094;27.994;2023-06-26T10:27:04;38;37;
73973;PMS5003;62336;-26.094;27.994;2023-06-26T10:29:27;38;38;
73973;PMS5003;62336;-26.094;27.994;2023-06-26T10:31:54;43;37;
73973;PMS5003;62336;-26.094;27.994;2023-06-26T10:34:18;40;38;
73973;PMS5003;62336;-26.094;27.994;2023-06-26T10:36:43;40;36;
73973;PMS5003;62336;-26.094;27.994;2023-06-26T10:39:09;43;41;
73973;PMS5003;62336;-26.094;27.994;2023-06-26T10:41:36;38;37;
73973;PMS5003;62336;-26.094;27.994;2023-06-26T10:44:08;47;45;
73973;PMS5003;62336;-26.094;27.994;2023-06-26T10:46:25;42;40;
73973;PMS5003;62336;-26.094;27.994;2023-06-26T10:48:58;42;41;
73973;PMS5003;62336;-26.094;27.994;2023-06-26T10:51:17;44;42;
73973;PMS5003;62336;-26.094;27.994;2023-06-26T10:53:40;45;42;
73973;PMS5003;62336;-26.094;27.994;2023-06-26T10:56:05;45;42;
73973;PMS5003;62336;-26.094;27.994;2023-06-26T10:58:32;39;38;
73973;PMS5003;62336;-26.094;27.994;2023-06-26T11:03:23;48;43;
73973;PMS5003;62336;-26.094;27.994;2023-06-26T11:05:46;46;44;
73973;PMS5003;62336;-26.094;27.994;2023-06-26T11:08:11;42;40;
73973;PMS5003;62336;-26.094;27.994;2023-06-26T11:13:01;47;43;
73973;PMS5003;62336;-26.094;27.994;2023-06-26T11:15:27;45;43;
73973;PMS5003;62336;-26.094;27.994;2023-06-26T11:17:53;48;46;
73973;PMS5003;62336;-26.094;27.994;2023-06-26T11:20:18;51;47;
73973;PMS5003;62336;-26.094;27.994;2023-06-26T11:22:43;49;47;
73973;PMS5003;62336;-26.094;27.994;2023-06-26T11:25:11;41;40;
73973;PMS5003;62336;-26.094;27.994;2023-06-26T11:27:38;39;36;
73973;PMS5003;62336;-26.094;27.994;2023-06-26T11:30:00;39;37;
73973;PMS5003;62336;-26.094;27.994;2023-06-26T11:32:26;41;40;
73973;PMS5003;62336;-26.094;27.994;2023-06-26T11:34:50;39;38;
73973;PMS5003;62336;-26.094;27.994;2023-06-26T11:37:16;34;34;
73973;PMS5003;62336;-26.094;27.994;2023-06-26T11:39:42;40;38;
73973;PMS5003;62336;-26.094;27.994;2023-06-26T11:42:07;36;33;
73973;PMS5003;62336;-26.094;27.994;2023-06-26T11:44:32;36;33;
73973;PMS5003;62336;-26.094;27.994;2023-06-26T11:46:58;32;32;
73973;PMS5003;62336;-26.094;27.994;2023-06-26T11:49:23;40;35;
73973;PMS5003;62336;-26.094;27.994;2023-06-26T11:51:49;38;36;
73973;PMS5003;62336;-26.094;27.994;2023-06-26T11:54:15;36;35;
73973;PMS5003;62336;-26.094;27.994;2023-06-26T11:56:39;36;33;
73973;PMS5003;62336;-26.094;27.994;2023-06-26T11:59:05;42;41;
73973;PMS5003;62336;-26.094;27.994;2023-06-26T12:01:31;43;42;
73973;PMS5003;62336;-26.094;27.994;2023-06-26T12:03:58;41;38;
73973;PMS5003;62336;-26.094;27.994;2023-06-26T12:06:20;45;42;
73973;PMS5003;62336;-26.094;27.994;2023-06-26T12:08:46;42;42;
73973;PMS5003;62336;-26.094;27.994;2023-06-26T12:11:12;51;48;
73973;PMS5003;62336;-26.094;27.994;2023-06-26T12:13:36;42;41;
73973;PMS5003;62336;-26.094;27.994;2023-06-26T12:16:02;37;37;
73973;PMS5003;62336;-26.094;27.994;2023-06-26T12:20:53;47;42;
73973;PMS5003;62336;-26.094;27.994;2023-06-26T12:23:18;42;42;
73973;PMS5003;62336;-26.094;27.994;2023-06-26T12:25:43;42;40;
73973;PMS5003;62336;-26.094;27.994;2023-06-26T12:28:15;39;38;
73973;PMS5003;62336;-26.094;27.994;2023-06-26T12:30:34;38;36;
73973;PMS5003;62336;-26.094;27.994;2023-06-26T12:33:00;43;42;
73973;PMS5003;62336;-26.094;27.994;2023-06-26T12:35:25;44;42;
73973;PMS5003;62336;-26.094;27.994;2023-06-26T12:37:51;42;39;
73973;PMS5003;62336;-26.094;27.994;2023-06-26T12:40:17;41;41;
73973;PMS5003;62336;-26.094;27.994;2023-06-26T12:42:41;38;36;
73973;PMS5003;62336;-26.094;27.994;2023-06-26T12:45:10;34;33;
73973;PMS5003;62336;-26.094;27.994;2023-06-26T12:47:32;38;37;
73973;PMS5003;62336;-26.094;27.994;2023-06-26T12:49:57;41;38;
73973;PMS5003;62336;-26.094;27.994;2023-06-26T12:52:24;42;41;
73973;PMS5003;62336;-26.094;27.994;2023-06-26T12:54:51;36;36;
73973;PMS5003;62336;-26.094;27.994;2023-06-26T12:57:14;43;41;
73973;PMS5003;62336;-26.094;27.994;2023-06-26T12:59:39;41;40;
73973;PMS5003;62336;-26.094;27.994;2023-06-26T13:02:04;41;39;
73973;PMS5003;62336;-26.094;27.994;2023-06-26T13:04:30;44;42;
73973;PMS5003;62336;-26.094;27.994;2023-06-26T13:06:55;44;44;
73973;PMS5003;62336;-26.094;27.994;2023-06-26T13:09:20;48;48;
73973;PMS5003;62336;-26.094;27.994;2023-06-26T13:11:45;44;41;
73973;PMS5003;62336;-26.094;27.994;2023-06-26T13:14:11;36;36;
73973;PMS5003;62336;-26.094;27.994;2023-06-26T13:16:37;40;39;
73973;PMS5003;62336;-26.094;27.994;2023-06-26T13:19:02;42;40;
73973;PMS5003;62336;-26.094;27.994;2023-06-26T13:21:28;41;40;
73973;PMS5003;62336;-26.094;27.994;2023-06-26T13:23:53;41;41;
73973;PMS5003;62336;-26.094;27.994;2023-06-26T13:26:19;42;40;
73973;PMS5003;62336;-26.094;27.994;2023-06-26T13:28:45;41;40;
73973;PMS5003;62336;-26.094;27.994;2023-06-26T13:31:10;39;39;
73973;PMS5003;62336;-26.094;27.994;2023-06-26T13:33:35;42;40;
73973;PMS5003;62336;-26.094;27.994;2023-06-26T13:36:01;45;42;
73973;PMS5003;62336;-26.094;27.994;2023-06-26T13:38:26;42;39;
73973;PMS5003;62336;-26.094;27.994;2023-06-26T13:40:51;39;38;
73973;PMS5003;62336;-26.094;27.994;2023-06-26T13:43:17;41;38;
73973;PMS5003;62336;-26.094;27.994;2023-06-26T13:45:43;38;38;
73973;PMS5003;62336;-26.094;27.994;2023-06-26T13:48:08;42;41;
73973;PMS5003;62336;-26.094;27.994;2023-06-26T13:50:34;40;38;
73973;PMS5003;62336;-26.094;27.994;2023-06-26T13:53:00;36;35;
73973;PMS5003;62336;-26.094;27.994;2023-06-26T13:55:25;34;33;
73973;PMS5003;62336;-26.094;27.994;2023-06-26T13:57:50;35;31;
73973;PMS5003;62336;-26.094;27.994;2023-06-26T14:00:15;42;40;
73973;PMS5003;62336;-26.094;27.994;2023-06-26T14:02:40;46;41;
73973;PMS5003;62336;-26.094;27.994;2023-06-26T14:05:07;37;36;
73973;PMS5003;62336;-26.094;27.994;2023-06-26T14:07:31;40;39;
73973;PMS5003;62336;-26.094;27.994;2023-06-26T14:09:57;45;40;
73973;PMS5003;62336;-26.094;27.994;2023-06-26T14:12:22;38;37;
73973;PMS5003;62336;-26.094;27.994;2023-06-26T14:14:48;38;37;
73973;PMS5003;62336;-26.094;27.994;2023-06-26T14:17:13;34;33;
73973;PMS5003;62336;-26.094;27.994;2023-06-26T14:19:38;35;33;
73973;PMS5003;62336;-26.094;27.994;2023-06-26T14:22:03;40;38;
73973;PMS5003;62336;-26.094;27.994;2023-06-26T14:24:29;37;34;
73973;PMS5003;62336;-26.094;27.994;2023-06-26T14:26:55;39;37;
73973;PMS5003;62336;-26.094;27.994;2023-06-26T14:29:21;37;36;
73973;PMS5003;62336;-26.094;27.994;2023-06-26T14:31:46;36;33;
73973;PMS5003;62336;-26.094;27.994;2023-06-26T14:34:11;36;36;
73973;PMS5003;62336;-26.094;27.994;2023-06-26T14:36:36;36;35;
73973;PMS5003;62336;-26.094;27.994;2023-06-26T14:39:02;35;35;
73973;PMS5003;62336;-26.094;27.994;2023-06-26T14:41:27;39;37;
73973;PMS5003;62336;-26.094;27.994;2023-06-26T14:43:52;37;36;
73973;PMS5003;62336;-26.094;27.994;2023-06-26T14:46:18;36;35;
73973;PMS5003;62336;-26.094;27.994;2023-06-26T14:48:43;38;37;
73973;PMS5003;62336;-26.094;27.994;2023-06-26T14:51:08;42;40;
73973;PMS5003;62336;-26.094;27.994;2023-06-26T14:53:35;40;37;
73973;PMS5003;62336;-26.094;27.994;2023-06-26T14:55:59;41;39;
73973;PMS5003;62336;-26.094;27.994;2023-06-26T14:58:25;44;40;
73973;PMS5003;62336;-26.094;27.994;2023-06-26T15:00:50;35;34;
73973;PMS5003;62336;-26.094;27.994;2023-06-26T15:03:16;37;36;
73973;PMS5003;62336;-26.094;27.994;2023-06-26T15:05:42;41;39;
73973;PMS5003;62336;-26.094;27.994;2023-06-26T15:08:07;36;36;
73973;PMS5003;62336;-26.094;27.994;2023-06-26T15:10:32;39;35;
73973;PMS5003;62336;-26.094;27.994;2023-06-26T15:12:57;39;36;
73973;PMS5003;62336;-26.094;27.994;2023-06-26T15:15:23;38;36;
73973;PMS5003;62336;-26.094;27.994;2023-06-26T15:17:49;41;40;
73973;PMS5003;62336;-26.094;27.994;2023-06-26T15:20:14;38;35;
73973;PMS5003;62336;-26.094;27.994;2023-06-26T15:22:39;38;34;
73973;PMS5003;62336;-26.094;27.994;2023-06-26T15:25:05;39;39;
73973;PMS5003;62336;-26.094;27.994;2023-06-26T15:27:30;38;38;
73973;PMS5003;62336;-26.094;27.994;2023-06-26T15:29:56;40;40;
73973;PMS5003;62336;-26.094;27.994;2023-06-26T15:32:22;42;39;
73973;PMS5003;62336;-26.094;27.994;2023-06-26T15:34:46;47;43;
73973;PMS5003;62336;-26.094;27.994;2023-06-26T15:37:11;48;45;
73973;PMS5003;62336;-26.094;27.994;2023-06-26T15:39:36;52;47;
73973;PMS5003;62336;-26.094;27.994;2023-06-26T15:42:02;45;43;